Aeroporto :
LOGIN :

Iscrizione | Disclaimer

   EN    FR    IT 

 










Sommario :    VFR   VFR Marginale   IFR   IFR Intensivo   IFR Molto Intensivo
Visibilità : 
Base nubi : 
>= 8 km
>= 3000ft
5 / 8 km
1000 / 3000 ft
1500m / 5 km
500 / 1000 ft
800 / 1500m
200 / 500 ft
< 800m
< 200 ft
Simboli :   Temporali  Nebbia  Neve Forte  Precipitazioni Forti  Vento > 20 kt
SIGMETs :   Varie  Temporali  Ghiacco  Turbolenza  Onda orograficha  Ceneri Vulcaniche







- Altitudine del aeroporto : 614 ft
- Codice IATA : CRL


EBCI - Charleroi

ULTIMO METAR :
  • 161620Z 35007KT 8000 -RA FEW006 BKN014 18/16 Q1021 TEMPO 4000 -RADZ SCT006 BKN008

METARs OBSOLETI :
  • 161550Z 30004KT 260V360 9999 BKN021 19/15 Q1020 TEMPO 4000 -RADZ SCT006 BKN008
  • 161520Z 28005KT 250V320 9999 BKN021 19/14 Q1020 NOSIG
  • 161450Z 30004KT 240V360 9999 SCT021 20/14 Q1020 NOSIG
  • 161420Z 30005KT 260V340 9999 SCT021 20/14 Q1021 NOSIG
  • 161350Z 29004KT 240V340 9999 FEW030 20/14 Q1020 NOSIG

TAF TAF EBCI
Valido dal 16 a 12 ore il 17 a 18 ore UTC


161110Z 1612/1718 28004KT 9000 SCT030
TEMPO 1619/1703 4000 -RA SCT006 BKN010
PROB40 1620/1623 2800 -DZRA BKN004
Nessun NOTAM noto per questo aeroporto.



MetMap, La meteo Aeronautica in un colpo d'occhio ! - Copyright ORBIFLY Dicembre 2007 - Disclaimer

ORBIFLY MET'MAP TEAM :

Programmazione e sviluppo : Alexandra Zaïnal
Concezione e sviluppo : Baudouin d'Aumeries
Co-Programmazione e sviluppo : Marc-Olivier Méhu
Supporto tecnico e logistico : Manuel Goepfert
Aiuto per la traduzione : Arnaldo La Scala

Contatto : metmap@orbifly.com




FONTI E CREDITI :

   NOAA